Time;durP1;ratioP1;P1;durP2;ratioP2;P2;SDS_P1;SDS_P2;PMS_P1;PMS_P2;Temp;Humidity;BMP_temperature;BMP_pressure;BME280_temperature;BME280_humidity;BME280_pressure;Samples;Min_cycle;Max_cycle;Signal;HPM_P1;HPM_P2
2022/06/08 00:00:37;;;;;;;7.43;5.43;;;;;;;14.58;78.37;100159.72;5080609;28;20033;-72
2022/06/08 00:03:08;;;;;;;7.82;6.20;;;;;;;14.56;78.71;100161.53;5080866;28;20024;-72
2022/06/08 00:05:33;;;;;;;6.65;5.70;;;;;;;14.48;78.49;100153.75;5082668;28;20444;-72
2022/06/08 00:07:58;;;;;;;6.85;6.15;;;;;;;14.42;79.26;100161.88;5083600;28;20038;-72
2022/06/08 00:10:24;;;;;;;7.28;5.72;;;;;;;14.35;79.82;100160.31;5080768;28;20036;-73
2022/06/08 00:12:49;;;;;;;7.53;6.18;;;;;;;14.25;80.88;100156.16;5080170;28;20040;-72
2022/06/08 00:15:15;;;;;;;7.60;6.40;;;;;;;14.24;80.57;100151.78;5083716;28;20393;-72
2022/06/08 00:17:40;;;;;;;6.70;5.78;;;;;;;14.29;80.59;100155.19;5081778;28;20054;-72
2022/06/08 00:20:08;;;;;;;10.20;5.70;;;;;;;14.33;81.26;100156.84;5081173;28;20404;-72
2022/06/08 00:22:34;;;;;;;7.93;6.38;;;;;;;14.36;80.48;100151.44;5080569;28;20376;-72
2022/06/08 00:24:59;;;;;;;6.82;6.13;;;;;;;14.41;80.09;100151.34;5083976;28;20502;-72
2022/06/08 00:27:25;;;;;;;7.80;5.75;;;;;;;14.44;79.59;100154.75;5080756;28;20121;-72
2022/06/08 00:29:51;;;;;;;6.30;5.38;;;;;;;14.39;78.98;100151.38;5083189;28;20068;-72
2022/06/08 00:32:17;;;;;;;8.45;6.43;;;;;;;14.35;80.36;100149.69;5076736;28;20059;-72
2022/06/08 00:34:43;;;;;;;6.80;6.10;;;;;;;14.27;80.05;100158.78;5077427;28;20043;-72
2022/06/08 00:37:08;;;;;;;7.35;6.47;;;;;;;14.29;79.78;100159.63;5083013;28;20394;-72
2022/06/08 00:39:34;;;;;;;10.40;7.25;;;;;;;14.35;81.74;100159.44;5080082;28;20086;-72
2022/06/08 00:42:04;;;;;;;11.30;7.63;;;;;;;14.42;81.52;100161.03;5075948;28;20040;-72
2022/06/08 00:44:44;;;;;;;7.97;7.13;;;;;;;14.40;81.03;100153.09;5081147;28;20042;-73
2022/06/08 00:47:13;;;;;;;7.72;6.93;;;;;;;14.38;80.04;100154.94;5083289;28;20028;-72
2022/06/08 00:49:43;;;;;;;6.30;5.50;;;;;;;14.37;79.71;100147.88;5080055;28;20086;-72
2022/06/08 00:52:11;;;;;;;7.50;6.75;;;;;;;14.38;80.70;100152.28;5080350;28;20036;-72
2022/06/08 00:54:41;;;;;;;8.63;7.78;;;;;;;14.38;81.27;100157.59;5082492;28;20112;-72
2022/06/08 00:57:21;;;;;;;6.97;5.95;;;;;;;14.40;80.40;100163.72;5077700;28;20035;-72
2022/06/08 00:59:55;;;;;;;8.80;6.30;;;;;;;14.42;79.82;100161.03;5078545;28;20068;-72
2022/06/08 01:02:21;;;;;;;7.85;6.43;;;;;;;14.36;79.12;100159.41;5075011;28;20544;-72
2022/06/08 01:04:48;;;;;;;8.63;7.70;;;;;;;14.36;79.33;100148.81;5080051;28;20039;-72
2022/06/08 01:07:20;;;;;;;9.15;6.95;;;;;;;14.38;79.13;100143.44;5081586;28;20513;-73
2022/06/08 01:09:48;;;;;;;8.20;6.63;;;;;;;14.34;78.40;100150.63;5075224;28;20028;-72
2022/06/08 01:12:17;;;;;;;8.52;7.63;;;;;;;14.24;78.96;100143.81;5079996;28;20033;-72
2022/06/08 01:14:48;;;;;;;9.57;6.68;;;;;;;14.20;79.04;100140.38;5082895;28;20036;-72
2022/06/08 01:17:18;;;;;;;7.72;6.18;;;;;;;14.17;78.47;100142.22;5077992;28;20521;-72
2022/06/08 01:19:47;;;;;;;6.60;5.88;;;;;;;14.07;78.71;100135.44;5073190;28;20033;-71
2022/06/08 01:22:19;;;;;;;9.07;6.78;;;;;;;14.03;79.20;100135.50;5078035;28;20024;-72
2022/06/08 01:24:51;;;;;;;9.18;6.95;;;;;;;14.01;79.12;100133.81;5078550;28;20028;-72
2022/06/08 01:27:29;;;;;;;7.82;5.60;;;;;;;13.96;78.69;100135.72;5080014;28;20161;-72
2022/06/08 01:30:24;;;;;;;7.82;7.03;;;;;;;13.89;79.27;100135.03;5081712;28;20579;-72
2022/06/08 01:33:25;;;;;;;10.00;6.57;;;;;;;13.84;79.43;100133.41;5087667;28;20029;-72
2022/06/08 01:35:57;;;;;;;8.60;7.15;;;;;;;13.78;79.07;100137.97;5079462;28;20101;-71
2022/06/08 01:38:39;;;;;;;8.43;6.63;;;;;;;13.73;79.08;100136.34;5078088;28;20039;-72
2022/06/08 01:41:43;;;;;;;7.43;6.65;;;;;;;13.65;79.23;100130.31;5078395;28;20503;-73
2022/06/08 01:44:14;;;;;;;7.28;6.43;;;;;;;13.57;79.36;100123.47;5075844;28;20037;-71
2022/06/08 01:46:50;;;;;;;8.48;7.13;;;;;;;13.58;79.28;100125.19;5081206;28;20036;-72
2022/06/08 01:49:22;;;;;;;7.57;6.60;;;;;;;13.58;79.07;100122.53;5057915;28;20131;-71
2022/06/08 01:52:11;;;;;;;9.63;8.30;;;;;;;13.57;80.14;100120.81;5079110;28;20033;-72
2022/06/08 01:54:52;;;;;;;10.55;8.93;;;;;;;13.57;79.37;100125.22;5062992;28;20033;-72
2022/06/08 01:57:30;;;;;;;10.00;6.37;;;;;;;13.47;79.93;100127.25;5075716;28;20028;-72
2022/06/08 02:00:09;;;;;;;9.77;8.02;;;;;;;13.44;80.19;100126.44;5080628;28;20056;-72
2022/06/08 02:03:00;;;;;;;8.07;7.05;;;;;;;13.37;80.31;100123.94;5080623;28;20032;-72
2022/06/08 02:05:44;;;;;;;8.02;7.22;;;;;;;13.27;81.02;100118.91;5067227;28;20056;-72
2022/06/08 02:08:25;;;;;;;9.88;7.88;;;;;;;13.22;81.46;100120.75;5080195;28;20028;-72
2022/06/08 02:11:10;;;;;;;9.25;6.93;;;;;;;13.16;81.94;100122.63;5081052;28;20063;-71
2022/06/08 02:13:47;;;;;;;8.85;7.30;;;;;;;13.09;82.19;100122.81;5081125;28;20039;-72
2022/06/08 02:16:22;;;;;;;7.22;6.30;;;;;;;13.09;82.09;100125.47;5059055;28;20060;-72
2022/06/08 02:18:57;;;;;;;7.63;6.57;;;;;;;13.06;81.85;100120.25;5081076;28;20031;-72
2022/06/08 02:21:35;;;;;;;7.47;5.97;;;;;;;13.08;81.33;100121.94;5078366;28;20090;-72
2022/06/08 02:24:36;;;;;;;7.60;6.75;;;;;;;13.11;81.77;100135.13;5074206;28;20033;-72
2022/06/08 02:27:30;;;;;;;8.13;6.93;;;;;;;13.15;81.38;100125.31;5056725;28;20082;-72
2022/06/08 02:30:15;;;;;;;9.43;7.93;;;;;;;13.16;81.04;100122.63;5059063;28;20036;-72
2022/06/08 02:35:46;;;;;;;7.07;6.22;;;;;;;13.10;80.99;100124.56;5077589;28;20402;-72
2022/06/08 02:38:17;;;;;;;8.35;5.70;;;;;;;13.03;81.00;100131.78;5057716;28;20036;-72
2022/06/08 02:40:47;;;;;;;6.93;5.85;;;;;;;12.93;81.10;100119.63;5079268;28;20025;-72
2022/06/08 02:43:23;;;;;;;7.38;6.57;;;;;;;12.92;80.83;100124.06;5079156;28;20059;-72
2022/06/08 02:46:02;;;;;;;8.50;7.60;;;;;;;12.92;81.20;100121.41;5064160;28;20037;-72
2022/06/08 02:48:28;;;;;;;13.57;10.75;;;;;;;12.90;81.92;100117.94;5081179;28;20039;-72
2022/06/08 02:50:57;;;;;;;14.95;13.13;;;;;;;12.97;82.74;100115.13;5080923;28;20028;-72
2022/06/08 02:53:31;;;;;;;14.50;12.23;;;;;;;13.02;82.47;100116.78;5082212;28;20463;-72
2022/06/08 02:56:03;;;;;;;13.85;12.18;;;;;;;13.05;81.73;100108.78;5084463;28;20043;-72
2022/06/08 02:58:44;;;;;;;9.43;8.02;;;;;;;13.01;80.81;100108.88;5062452;28;20086;-72
2022/06/08 03:01:22;;;;;;;8.93;8.02;;;;;;;12.98;81.39;100109.81;5069076;28;20769;-72
2022/06/08 03:03:54;;;;;;;8.93;7.53;;;;;;;12.86;81.56;100112.72;5082789;28;20402;-72
2022/06/08 03:06:22;;;;;;;;;;;;;;;12.82;83.39;100117.22;5084765;28;20544;-72
2022/06/08 03:08:57;;;;;;;7.32;6.32;;;;;;;12.89;81.88;100112.66;5073922;28;19920;-72
2022/06/08 03:11:25;;;;;;;8.15;7.30;;;;;;;12.87;81.71;100114.50;5081018;28;20033;-72
2022/06/08 03:14:02;;;;;;;10.27;7.97;;;;;;;12.87;82.01;100111.84;5084146;28;20040;-72
2022/06/08 03:16:41;;;;;;;9.07;8.05;;;;;;;12.86;82.26;100112.72;5082156;28;20060;-72
2022/06/08 03:19:10;;;;;;;8.77;6.57;;;;;;;12.85;81.87;100111.00;5061071;28;20044;-72
2022/06/08 03:21:37;;;;;;;8.23;7.25;;;;;;;12.88;81.47;100116.22;5081442;28;20402;-72
2022/06/08 03:24:04;;;;;;;8.07;6.68;;;;;;;12.87;82.41;100114.50;5081855;28;20094;-72
2022/06/08 03:26:42;;;;;;;9.10;7.20;;;;;;;12.90;82.67;100114.41;5083880;28;20024;-72
2022/06/08 03:29:08;;;;;;;7.60;6.38;;;;;;;12.94;81.50;100118.72;5061707;28;20036;-72
2022/06/08 03:31:34;;;;;;;10.45;7.72;;;;;;;12.93;81.98;100115.22;5078861;28;20085;-72
2022/06/08 03:34:00;;;;;;;10.25;8.77;;;;;;;13.01;82.68;100116.81;5079539;28;20028;-72
2022/06/08 03:36:26;;;;;;;9.30;8.07;;;;;;;13.11;82.26;100113.91;5083765;28;20039;-72
2022/06/08 03:38:52;;;;;;;12.32;7.53;;;;;;;13.16;81.20;100119.97;5061008;28;20074;-72
2022/06/08 03:41:17;;;;;;;10.00;8.38;;;;;;;13.21;80.08;100119.03;5083453;28;20024;-72
2022/06/08 03:43:43;;;;;;;7.70;6.75;;;;;;;13.22;80.30;100116.31;5081729;28;20058;-72
2022/06/08 03:46:10;;;;;;;12.70;8.90;;;;;;;13.16;81.10;100121.78;5081544;28;20032;-72
2022/06/08 03:48:37;;;;;;;10.73;8.20;;;;;;;13.13;81.22;100117.41;5083847;28;20043;-72
2022/06/08 03:51:03;;;;;;;12.43;10.05;;;;;;;13.13;81.36;100133.31;5076144;28;20105;-72
2022/06/08 03:53:40;;;;;;;9.75;8.00;;;;;;;13.21;80.86;100133.13;5081048;28;20036;-72
2022/06/08 03:56:08;;;;;;;11.98;8.48;;;;;;;13.30;80.78;100134.72;5082985;28;20486;-72
2022/06/08 03:58:33;;;;;;;13.52;9.02;;;;;;;13.41;80.04;100139.75;5081148;28;20433;-72
2022/06/08 04:01:03;;;;;;;10.65;7.93;;;;;;;13.49;79.75;100125.44;5080984;28;20021;-72
2022/06/08 04:03:30;;;;;;;9.63;8.65;;;;;;;13.59;79.44;100126.91;5074376;28;20029;-72
2022/06/08 04:05:58;;;;;;;13.95;12.40;;;;;;;13.72;78.71;100126.63;5077399;28;20114;-72
2022/06/08 04:08:26;;;;;;;12.55;10.80;;;;;;;13.81;78.44;100123.75;5079621;28;20079;-72
2022/06/08 04:10:56;;;;;;;16.55;9.88;;;;;;;13.90;77.60;100126.16;5081673;28;20059;-72
2022/06/08 04:13:21;;;;;;;10.57;9.25;;;;;;;13.99;77.44;100131.22;5081161;28;20062;-72
2022/06/08 04:15:50;;;;;;;9.93;8.13;;;;;;;14.01;77.72;100134.69;5080397;28;20044;-72
2022/06/08 04:18:23;;;;;;;12.25;11.00;;;;;;;14.05;77.94;100129.31;5060076;28;20028;-73
2022/06/08 04:20:55;;;;;;;10.20;8.70;;;;;;;14.11;77.98;100124.69;5078080;28;20028;-72
2022/06/08 04:23:23;;;;;;;9.43;8.15;;;;;;;14.17;77.80;100123.66;5082426;28;20496;-72
2022/06/08 04:25:51;;;;;;;10.93;9.77;;;;;;;14.25;78.27;100126.97;5081234;28;20536;-72
2022/06/08 04:28:17;;;;;;;11.40;10.20;;;;;;;14.33;78.18;100132.97;5079026;28;20020;-72
2022/06/08 04:30:47;;;;;;;9.80;8.35;;;;;;;14.41;78.30;100130.09;5077502;28;20029;-72
2022/06/08 04:33:13;;;;;;;10.35;8.85;;;;;;;14.52;78.02;100133.31;5074164;28;20872;-72
2022/06/08 04:35:40;;;;;;;9.60;8.20;;;;;;;14.61;77.05;100124.22;5078312;28;20047;-72
2022/06/08 04:38:06;;;;;;;9.30;7.97;;;;;;;14.74;77.43;100119.44;5082380;28;20055;-72
2022/06/08 04:40:36;;;;;;;9.65;8.63;;;;;;;14.87;76.72;100123.44;5080222;28;20101;-71
2022/06/08 04:43:02;;;;;;;8.45;7.55;;;;;;;15.01;75.79;100123.91;5079308;28;20128;-72
2022/06/08 04:45:28;;;;;;;10.27;7.57;;;;;;;15.15;74.59;100115.50;5073499;28;20103;-71
2022/06/08 04:47:54;;;;;;;9.57;6.95;;;;;;;15.28;74.00;100118.66;5077610;28;20025;-71
2022/06/08 04:50:20;;;;;;;9.82;6.03;;;;;;;15.41;73.80;100111.16;5082175;28;20027;-72
2022/06/08 04:52:48;;;;;;;7.78;6.13;;;;;;;15.56;72.82;100110.59;5079140;28;20460;-72
2022/06/08 04:55:15;;;;;;;8.43;5.80;;;;;;;15.69;72.12;100112.00;5064033;28;20665;-72
2022/06/08 04:57:43;;;;;;;9.70;6.15;;;;;;;15.85;71.84;100116.78;5071849;28;20036;-72
2022/06/08 05:00:12;;;;;;;9.20;6.68;;;;;;;15.97;71.30;100121.69;5074789;28;20028;-72
2022/06/08 05:02:44;;;;;;;8.95;6.13;;;;;;;16.07;70.41;100117.78;5059795;28;20021;-72
2022/06/08 05:05:19;;;;;;;9.05;6.07;;;;;;;16.23;69.43;100115.44;5081544;28;20024;-71
2022/06/08 05:07:47;;;;;;;10.85;6.03;;;;;;;16.35;69.11;100109.66;5074824;28;20032;-72
2022/06/08 05:10:14;;;;;;;8.43;6.53;;;;;;;16.37;68.93;100112.25;5080548;28;20085;-72
2022/06/08 05:12:41;;;;;;;6.53;5.28;;;;;;;16.45;68.46;100112.84;5072549;28;20033;-72
2022/06/08 05:15:09;;;;;;;9.35;5.63;;;;;;;16.58;67.82;100116.81;5078516;28;20032;-72
2022/06/08 05:17:35;;;;;;;7.57;5.32;;;;;;;16.68;68.01;100119.13;5080664;28;20039;-72
2022/06/08 05:20:03;;;;;;;6.85;5.00;;;;;;;16.77;67.13;100103.69;5078262;28;20127;-72
2022/06/08 05:22:30;;;;;;;7.40;4.70;;;;;;;16.87;67.02;100098.84;5079493;28;20035;-72
2022/06/08 05:24:58;;;;;;;7.03;4.80;;;;;;;16.91;66.64;100095.16;5078944;28;20093;-72
2022/06/08 05:27:24;;;;;;;7.10;5.15;;;;;;;17.02;66.86;100098.25;5077658;28;20467;-72
2022/06/08 05:29:49;;;;;;;7.25;4.53;;;;;;;17.05;66.58;100098.13;5075644;28;20032;-72
2022/06/08 05:32:15;;;;;;;4.75;3.80;;;;;;;17.14;65.00;100104.03;5081737;28;20040;-72
2022/06/08 05:34:40;;;;;;;7.13;3.80;;;;;;;17.28;65.07;100096.34;5080502;28;20033;-72
2022/06/08 05:37:08;;;;;;;7.80;3.88;;;;;;;17.41;64.74;100100.25;5077800;28;20029;-72
2022/06/08 05:39:34;;;;;;;7.90;4.22;;;;;;;17.52;63.60;100102.47;5077256;28;20029;-72
2022/06/08 05:42:00;;;;;;;7.60;3.97;;;;;;;17.61;63.07;100107.44;5079120;28;20051;-72
2022/06/08 05:44:28;;;;;;;6.80;3.90;;;;;;;17.72;62.40;100094.50;5073704;28;20388;-73
2022/06/08 05:46:56;;;;;;;7.10;3.65;;;;;;;17.78;62.10;100087.16;5080118;28;20054;-72
2022/06/08 05:49:21;;;;;;;6.82;3.60;;;;;;;17.95;62.14;100088.19;5079870;28;20508;-72
2022/06/08 05:51:50;;;;;;;6.35;3.10;;;;;;;18.06;60.81;100089.53;5077865;28;20041;-72
2022/06/08 05:54:20;;;;;;;6.80;3.83;;;;;;;18.21;60.58;100090.63;5078332;28;20032;-72
2022/06/08 05:56:45;;;;;;;7.07;3.60;;;;;;;18.28;60.09;100090.28;5080574;28;20040;-73
2022/06/08 05:59:11;;;;;;;5.68;3.15;;;;;;;18.40;59.91;100095.09;5078817;28;20028;-72
2022/06/08 06:01:40;;;;;;;6.10;3.03;;;;;;;18.51;60.65;100088.41;5047819;28;20123;-73
2022/06/08 06:04:07;;;;;;;4.78;3.00;;;;;;;18.65;59.84;100095.78;5075162;28;20025;-72
2022/06/08 06:06:34;;;;;;;6.90;3.78;;;;;;;18.72;59.87;100097.22;5078736;28;20566;-72
2022/06/08 06:09:02;;;;;;;5.05;2.88;;;;;;;18.81;59.64;100095.03;5079827;28;20025;-72
2022/06/08 06:11:28;;;;;;;5.03;2.83;;;;;;;18.87;59.27;100095.69;5078489;28;20562;-72
2022/06/08 06:13:53;;;;;;;6.63;2.88;;;;;;;18.92;59.06;100101.69;5064153;22;20046;-76
2022/06/08 06:16:20;;;;;;;6.22;2.95;;;;;;;18.99;58.99;100092.41;5007664;28;20022;-73
2022/06/08 06:18:49;;;;;;;4.85;2.78;;;;;;;18.99;58.86;100098.66;5008693;28;20038;-74
2022/06/08 06:21:26;;;;;;;9.80;3.35;;;;;;;19.14;58.96;100091.66;5009882;28;20057;-74
2022/06/08 06:24:02;;;;;;;4.72;3.00;;;;;;;19.33;58.58;100093.44;5009523;28;20030;-74
2022/06/08 06:26:34;;;;;;;6.05;2.97;;;;;;;19.43;58.05;100090.22;5007372;28;20034;-74
2022/06/08 06:29:29;;;;;;;9.63;3.58;;;;;;;19.55;57.35;100091.44;5005912;28;20527;-74
2022/06/08 06:32:32;;;;;;;7.63;2.53;;;;;;;19.65;57.75;100092.72;5006959;28;20030;-74
2022/06/08 06:34:59;;;;;;;7.07;3.33;;;;;;;19.66;57.51;100097.16;5004738;28;20042;-74
2022/06/08 06:37:26;;;;;;;8.70;3.88;;;;;;;19.69;57.46;100091.63;5002604;28;20093;-74
2022/06/08 06:39:52;;;;;;;5.85;3.30;;;;;;;19.86;56.88;100084.56;5001292;28;20038;-74
2022/06/08 06:42:31;;;;;;;8.15;3.60;;;;;;;19.96;56.33;100077.75;5008397;28;20558;-74
2022/06/08 06:45:26;;;;;;;6.60;3.05;;;;;;;20.06;55.99;100086.19;5001926;28;20041;-74
2022/06/08 06:47:59;;;;;;;6.30;3.33;;;;;;;20.18;55.88;100082.00;5004002;28;20034;-73
2022/06/08 06:50:25;;;;;;;5.20;2.10;;;;;;;20.29;55.93;100084.97;5003727;28;20040;-74
2022/06/08 06:52:53;;;;;;;2.75;1.20;;;;;;;20.36;55.12;100073.84;4999548;28;20100;-74
2022/06/08 06:55:32;;;;;;;4.70;2.38;;;;;;;20.46;54.98;100076.91;5006690;28;20149;-74
2022/06/08 06:58:01;;;;;;;3.42;1.65;;;;;;;20.60;54.50;100069.94;5003346;28;20041;-74
2022/06/08 07:00:32;;;;;;;3.00;1.80;;;;;;;20.58;53.65;100064.66;5003489;28;20037;-74
2022/06/08 07:03:00;;;;;;;3.58;1.63;;;;;;;20.65;54.27;100074.09;5005758;28;20026;-74
2022/06/08 07:05:31;;;;;;;2.85;1.50;;;;;;;20.78;53.97;100067.09;5004036;28;20069;-74
2022/06/08 07:07:56;;;;;;;4.40;1.30;;;;;;;20.82;53.45;100065.09;5000091;28;20034;-74
2022/06/08 07:10:23;;;;;;;4.55;1.52;;;;;;;20.78;54.12;100056.38;5011578;28;20037;-74
2022/06/08 07:12:49;;;;;;;3.17;1.30;;;;;;;20.87;53.38;100064.84;5000444;28;20441;-74
2022/06/08 07:15:17;;;;;;;3.97;1.45;;;;;;;20.91;52.96;100066.44;5006105;28;20415;-74
2022/06/08 07:17:42;;;;;;;4.15;1.63;;;;;;;20.86;53.18;100063.13;5001640;28;20563;-74
2022/06/08 07:20:10;;;;;;;2.90;1.23;;;;;;;20.96;52.15;100069.72;5002388;28;20116;-74
2022/06/08 07:22:37;;;;;;;3.35;1.25;;;;;;;21.02;52.82;100059.50;4998816;28;20038;-74
2022/06/08 07:25:04;;;;;;;4.22;1.17;;;;;;;21.23;53.74;100059.22;5007756;28;20451;-74
2022/06/08 07:27:29;;;;;;;2.53;1.20;;;;;;;21.38;53.25;100066.41;5009234;28;20100;-75
2022/06/08 07:29:55;;;;;;;2.45;1.27;;;;;;;21.56;52.50;100058.22;5004441;28;20037;-74
2022/06/08 07:32:20;;;;;;;3.15;1.77;;;;;;;21.58;52.38;100059.00;5003160;28;20034;-74
2022/06/08 07:34:46;;;;;;;3.25;1.35;;;;;;;21.68;52.07;100057.50;5002598;28;20050;-74
2022/06/08 07:37:11;;;;;;;1.73;1.00;;;;;;;21.64;50.60;100056.81;5005839;28;20112;-74
2022/06/08 07:39:37;;;;;;;2.13;1.23;;;;;;;21.67;51.25;100062.00;5007040;28;20050;-74
2022/06/08 07:42:03;;;;;;;2.72;1.35;;;;;;;21.69;51.07;100051.16;5007912;28;20034;-74
2022/06/08 07:44:28;;;;;;;2.95;1.15;;;;;;;21.83;51.59;100056.56;5006049;28;20034;-74
2022/06/08 07:46:54;;;;;;;2.03;0.80;;;;;;;21.91;50.58;100057.94;5006286;28;20021;-74
2022/06/08 07:49:49;;;;;;;3.38;0.85;;;;;;;21.98;49.96;100053.91;5003795;28;20142;-74
2022/06/08 07:52:11;;;;;;;2.75;0.98;;;;;;;22.05;49.37;100049.88;5007013;28;20038;-74
2022/06/08 07:54:38;;;;;;;1.92;0.93;;;;;;;22.11;48.64;100052.19;5005602;28;20566;-74
2022/06/08 07:57:04;;;;;;;3.30;0.93;;;;;;;22.16;48.70;100047.41;5007844;28;20122;-75
2022/06/08 07:59:33;;;;;;;2.40;0.70;;;;;;;22.16;49.62;100042.03;5006403;28;20117;-74
2022/06/08 08:01:58;;;;;;;2.55;1.00;;;;;;;22.30;49.05;100046.59;5002779;28;20040;-74
2022/06/08 08:04:24;;;;;;;3.85;1.00;;;;;;;22.45;47.49;100045.63;5003638;28;20496;-74
2022/06/08 08:06:50;;;;;;;4.35;0.80;;;;;;;22.50;48.71;100040.78;5004092;28;20073;-74
2022/06/08 08:09:20;;;;;;;2.63;1.13;;;;;;;22.48;47.71;100058.03;5009479;28;20038;-74
2022/06/08 08:11:47;;;;;;;3.95;1.40;;;;;;;22.49;47.63;100043.59;5002909;28;20684;-75
2022/06/08 08:14:14;;;;;;;2.45;1.20;;;;;;;22.55;48.33;100043.19;5004341;28;20042;-74
2022/06/08 08:16:41;;;;;;;4.97;3.20;;;;;;;22.67;47.49;100047.81;5008084;28;20029;-75
2022/06/08 08:19:06;;;;;;;2.67;1.30;;;;;;;22.78;46.45;100048.94;5008377;28;20025;-75
2022/06/08 08:21:32;;;;;;;3.53;1.35;;;;;;;22.94;46.65;100041.59;5001065;28;20511;-73
2022/06/08 08:23:59;;;;;;;2.30;1.45;;;;;;;23.13;46.40;100039.47;5008420;28;20030;-74
2022/06/08 08:26:28;;;;;;;3.05;1.30;;;;;;;23.15;46.08;100039.34;5010388;28;20034;-74
2022/06/08 08:28:54;;;;;;;3.85;1.80;;;;;;;23.24;45.26;100038.75;5005138;28;20489;-74
2022/06/08 08:31:20;;;;;;;4.10;1.10;;;;;;;23.25;45.51;100036.94;5010783;28;20042;-74
2022/06/08 08:33:45;;;;;;;3.13;1.33;;;;;;;23.15;45.88;100036.66;5003884;28;20105;-74
2022/06/08 08:36:11;;;;;;;4.00;1.67;;;;;;;23.31;45.62;100041.88;5004633;28;20042;-73
2022/06/08 08:38:37;;;;;;;2.65;1.33;;;;;;;23.37;45.36;100042.34;5001926;28;20456;-74
2022/06/08 08:41:04;;;;;;;5.85;1.60;;;;;;;23.47;45.81;100041.72;5001030;28;20041;-75
2022/06/08 08:43:37;;;;;;;4.13;2.13;;;;;;;23.61;44.57;100026.34;5004003;28;20038;-75
2022/06/08 08:46:09;;;;;;;3.15;1.00;;;;;;;23.68;44.54;100028.63;5007619;28;20042;-74
2022/06/08 08:48:50;;;;;;;3.05;1.00;;;;;;;23.82;44.69;100025.88;5005073;28;20058;-74
2022/06/08 08:51:23;;;;;;;4.25;1.52;;;;;;;24.00;44.77;100027.28;5005539;28;20046;-75
2022/06/08 08:54:15;;;;;;;7.90;1.40;;;;;;;23.89;43.91;100023.63;5003591;28;20034;-74
2022/06/08 08:56:42;;;;;;;2.90;1.15;;;;;;;24.16;44.15;100021.69;5005335;28;20041;-74
2022/06/08 08:59:12;;;;;;;5.15;1.70;;;;;;;24.26;44.06;100019.19;5005818;28;20048;-74
2022/06/08 09:01:40;;;;;;;5.25;2.25;;;;;;;24.45;42.99;100014.25;5006281;28;20039;-74
2022/06/08 09:04:10;;;;;;;3.65;1.90;;;;;;;24.56;42.94;100015.31;5005807;28;20127;-74
2022/06/08 09:06:36;;;;;;;2.17;1.05;;;;;;;24.66;41.84;99997.47;5003202;28;20640;-75
2022/06/08 09:09:09;;;;;;;4.03;1.33;;;;;;;24.46;42.63;99997.06;5002834;28;20037;-74
2022/06/08 09:11:39;;;;;;;3.80;1.63;;;;;;;24.37;42.79;100011.19;5004471;28;20057;-75
2022/06/08 09:14:11;;;;;;;1.85;0.80;;;;;;;24.36;43.77;100003.22;5009433;28;20021;-74
2022/06/08 09:16:42;;;;;;;6.97;2.58;;;;;;;24.56;42.93;99996.41;5000519;28;20103;-74
2022/06/08 09:19:46;;;;;;;4.55;1.70;;;;;;;24.74;43.12;99992.38;5006469;28;20452;-74
2022/06/08 09:22:13;;;;;;;4.65;1.85;;;;;;;24.98;42.19;99986.97;4987025;28;20041;-75
2022/06/08 09:24:48;;;;;;;3.67;1.48;;;;;;;25.03;42.18;99986.66;4997639;28;20077;-74
2022/06/08 09:27:47;;;;;;;1.02;0.60;;;;;;;25.04;41.39;99989.22;4997225;28;20042;-75
2022/06/08 09:30:15;;;;;;;2.55;0.70;;;;;;;24.88;41.76;99984.09;5000242;28;20034;-75
2022/06/08 09:32:44;;;;;;;2.85;1.00;;;;;;;25.14;42.07;99989.38;5000519;28;20041;-75
2022/06/08 09:35:26;;;;;;;2.88;0.80;;;;;;;25.45;40.78;99985.25;5001122;28;20088;-75
2022/06/08 09:37:55;;;;;;;4.38;1.40;;;;;;;25.58;40.67;99988.72;5001025;28;20080;-74
2022/06/08 09:40:37;;;;;;;4.25;1.00;;;;;;;25.86;40.38;99983.03;5002590;28;20539;-74
2022/06/08 09:43:42;;;;;;;2.75;0.88;;;;;;;25.99;40.51;99975.66;5007497;28;20088;-74
2022/06/08 09:52:20;;;;;;;6.97;1.75;;;;;;;26.13;40.76;99953.81;5001768;28;20396;-74
2022/06/08 09:55:09;;;;;;;2.38;0.85;;;;;;;26.15;40.50;99951.84;5003708;28;20472;-75
2022/06/08 09:57:44;;;;;;;3.90;0.93;;;;;;;26.09;40.74;99949.63;5008422;28;20037;-74
2022/06/08 10:00:18;;;;;;;2.20;0.77;;;;;;;25.98;39.51;99944.22;5006431;28;20036;-75
2022/06/08 10:03:18;;;;;;;4.82;1.00;;;;;;;26.04;39.39;99941.00;5007523;28;20030;-75
2022/06/08 10:06:10;;;;;;;2.25;0.88;;;;;;;26.16;37.98;99939.19;5004455;28;20125;-75
2022/06/08 10:08:49;;;;;;;1.92;0.90;;;;;;;26.27;38.26;99935.59;5011995;28;20570;-74
2022/06/08 10:11:37;;;;;;;1.65;0.90;;;;;;;26.34;38.00;99937.69;5009799;28;20041;-75
2022/06/08 10:14:42;;;;;;;4.25;1.05;;;;;;;26.36;38.13;99929.47;5005386;28;20488;-75
2022/06/08 10:17:21;;;;;;;2.08;0.65;;;;;;;26.73;38.71;99923.75;4992416;28;20050;-74
2022/06/08 10:20:03;;;;;;;5.53;2.55;;;;;;;26.83;38.19;99912.03;5006755;28;20077;-75
2022/06/08 10:22:35;;;;;;;2.30;1.30;;;;;;;27.44;37.48;99911.38;5009017;28;20038;-76
2022/06/08 10:25:07;;;;;;;2.00;0.88;;;;;;;27.67;36.26;99908.53;5007256;28;20066;-75
2022/06/08 10:27:52;;;;;;;2.92;1.30;;;;;;;27.52;36.74;99908.84;5006595;28;20409;-75
2022/06/08 10:30:54;;;;;;;0.50;0.30;;;;;;;27.30;35.38;99892.72;5009011;28;20037;-73
2022/06/08 10:33:23;;;;;;;2.55;0.60;;;;;;;27.06;36.99;99904.66;5009573;28;20034;-75
2022/06/08 10:35:55;;;;;;;2.33;0.90;;;;;;;26.99;37.24;99911.59;5006120;28;20551;-74
2022/06/08 10:38:25;;;;;;;2.30;0.75;;;;;;;27.35;36.96;99911.31;5007170;28;20177;-74
2022/06/08 10:41:00;;;;;;;1.80;0.70;;;;;;;27.58;35.89;99901.19;5003435;28;20034;-74
2022/06/08 10:43:32;;;;;;;1.65;0.70;;;;;;;27.52;36.13;99897.16;5008546;28;20049;-75
2022/06/08 10:46:03;;;;;;;1.27;0.60;;;;;;;27.57;35.72;99903.03;5006648;28;20073;-74
2022/06/08 10:48:35;;;;;;;3.10;0.98;;;;;;;27.26;35.73;99891.28;5004962;28;20100;-75
2022/06/08 10:51:10;;;;;;;2.50;0.90;;;;;;;27.39;35.77;99897.38;5008842;28;20041;-76
2022/06/08 10:56:48;;;;;;;1.33;0.70;;;;;;;27.91;36.01;99887.41;5006105;28;20037;-75
2022/06/08 10:59:26;;;;;;;1.90;0.98;;;;;;;28.22;34.50;99895.53;5003377;28;20036;-74
2022/06/08 11:01:53;;;;;;;0.98;0.68;;;;;;;28.17;34.81;99892.34;5011807;28;20033;-74
2022/06/08 11:04:31;;;;;;;2.30;1.10;;;;;;;28.26;33.33;99891.50;5005300;28;20029;-74
2022/06/08 11:07:09;;;;;;;1.60;0.75;;;;;;;28.57;34.33;99880.63;5005515;28;20452;-74
2022/06/08 11:09:36;;;;;;;3.83;1.20;;;;;;;28.73;33.74;99872.75;5002744;28;20501;-74
2022/06/08 11:12:12;;;;;;;2.40;0.55;;;;;;;28.84;33.87;99874.47;5002828;28;20037;-74
2022/06/08 11:14:43;;;;;;;1.75;0.70;;;;;;;28.92;33.26;99871.06;5002503;28;20587;-73
2022/06/08 11:17:37;;;;;;;1.70;0.65;;;;;;;28.65;32.96;99869.06;5004614;28;20400;-73
2022/06/08 11:20:27;;;;;;;3.15;0.90;;;;;;;28.47;33.62;99867.03;5005288;28;20082;-74
2022/06/08 11:23:00;;;;;;;2.03;0.50;;;;;;;28.26;33.33;99872.53;5003828;28;20034;-74
2022/06/08 11:25:33;;;;;;;1.33;0.55;;;;;;;28.36;33.00;99864.41;5006843;28;20087;-74
2022/06/08 11:28:29;;;;;;;1.88;0.68;;;;;;;28.52;33.38;99863.91;5006942;28;20034;-73
2022/06/08 11:30:59;;;;;;;0.77;0.40;;;;;;;28.49;33.57;99862.31;5009546;28;20100;-74
2022/06/08 11:33:55;;;;;;;1.50;0.65;;;;;;;28.57;32.30;99854.31;5002028;28;20049;-74
2022/06/08 11:36:47;;;;;;;2.00;0.68;;;;;;;28.43;33.21;99857.44;5002875;28;20538;-74
2022/06/08 11:39:45;;;;;;;2.70;0.73;;;;;;;28.91;32.80;99853.06;5003091;28;20038;-73
2022/06/08 11:42:24;;;;;;;2.60;0.88;;;;;;;29.61;31.99;99845.50;5003008;28;20045;-74
2022/06/08 11:44:56;;;;;;;2.80;1.15;;;;;;;29.70;31.99;99848.19;5002448;28;20042;-74
2022/06/08 11:47:29;;;;;;;5.60;1.58;;;;;;;29.98;30.87;99850.97;5003031;28;20077;-74
2022/06/08 11:50:22;;;;;;;1.67;0.88;;;;;;;30.18;30.29;99831.78;5001965;28;20052;-74
2022/06/08 11:53:01;;;;;;;1.50;0.50;;;;;;;30.54;29.44;99841.75;4998225;28;20142;-74
2022/06/08 11:55:27;;;;;;;2.10;0.98;;;;;;;30.47;30.48;99840.66;5007635;28;20128;-74
2022/06/08 11:58:05;;;;;;;8.05;0.95;;;;;;;30.64;30.24;99832.66;5004691;28;20492;-74
2022/06/08 12:00:48;;;;;;;4.18;1.75;;;;;;;30.67;30.00;99833.19;5002981;28;20408;-74
2022/06/08 12:03:16;;;;;;;1.05;0.60;;;;;;;31.30;29.43;99832.19;5005917;28;20022;-73